Current Weather

Hree Rivers Municipal Dr Hain

Hree Rivers Municipal Dr Hain, Michigan (KHAI)

Report from: Thursday, May 19, 2022 2:35 PM EDT
Current time: Thursday, May 19, 2022 3:01 PM EDT

Nearby weather
Weather history
Weather forecast

Temperature23.7°C (74.7°F)
Dew point17.3°C (63.1°F)
Winds 9 kts (4.6 m/s, 10.4 mph) Southwest (220°)
Wind gusts 14 kts (7.2 m/s, 16.1 mph)
Visibility7 mi. (11.3 km)
Clouds Scattered clouds 2,900 ft. (884 m)
Altimeter29.68 in.Hg (1005 mB)
Relative humidity67 %
Density altitude1,556 ft. (474 m)
Remarks Fully automated report
Automated weather observing station with precipitation discriminator
Flight conditions Visual Meteorological Conditions
Raw dataKHAI 191835Z AUTO 22009G14KT 7SM SCT029 24/17 A2968 RMK AO2 T02370173
An error has occurred. This application may no longer respond until reloaded. Reload 🗙